Time;durP1;ratioP1;P1;durP2;ratioP2;P2;SDS_P1;SDS_P2;PMS_P1;PMS_P2;Temp;Humidity;BMP_temperature;BMP_pressure;BME280_temperature;BME280_humidity;BME280_pressure;Samples;Min_cycle;Max_cycle;Signal;HPM_P1;HPM_P2
2023/12/08 00:00:54;;;;;;;7.38;2.63;;;12.00;99.40;;;;;;7400526;19;19966;-74
2023/12/08 00:03:20;;;;;;;7.22;2.40;;;11.90;99.90;;;;;;7403622;19;20402;-74
2023/12/08 00:05:46;;;;;;;9.20;2.55;;;11.80;99.90;;;;;;7398201;19;19938;-74
2023/12/08 00:08:13;;;;;;;5.38;1.92;;;11.60;99.90;;;;;;7397879;19;19981;-74
2023/12/08 00:10:39;;;;;;;5.05;2.03;;;11.50;99.90;;;;;;7403088;19;20019;-74
2023/12/08 00:13:04;;;;;;;4.55;2.17;;;11.40;99.90;;;;;;7373620;19;19927;-74
2023/12/08 00:15:31;;;;;;;7.38;2.25;;;11.30;99.90;;;;;;7401339;19;19918;-73
2023/12/08 00:17:57;;;;;;;4.38;1.83;;;11.20;99.90;;;;;;7403229;19;19926;-73
2023/12/08 00:20:23;;;;;;;4.55;1.85;;;11.10;99.90;;;;;;7403025;19;19938;-73
2023/12/08 00:22:50;;;;;;;4.85;1.90;;;11.10;99.90;;;;;;7400141;19;19922;-74
2023/12/08 00:25:16;;;;;;;8.20;2.40;;;11.10;99.90;;;;;;7386585;19;19914;-73
2023/12/08 00:27:42;;;;;;;5.18;1.63;;;11.00;99.90;;;;;;7394763;19;20380;-74
2023/12/08 00:30:08;;;;;;;5.28;2.10;;;10.90;99.90;;;;;;7395335;19;19935;-74
2023/12/08 00:32:34;;;;;;;4.90;1.77;;;11.00;99.90;;;;;;7400552;19;19939;-72
2023/12/08 00:35:00;;;;;;;4.22;1.73;;;11.00;99.90;;;;;;7399354;19;19918;-74
2023/12/08 00:37:26;;;;;;;4.32;1.95;;;10.80;99.90;;;;;;7403998;19;19922;-74
2023/12/08 00:39:52;;;;;;;5.45;1.92;;;10.80;99.90;;;;;;7401854;19;19941;-73
2023/12/08 00:42:18;;;;;;;4.97;1.75;;;10.80;99.90;;;;;;7400463;19;19945;-73
2023/12/08 00:44:44;;;;;;;5.38;1.88;;;10.70;99.90;;;;;;7396789;19;19982;-73
2023/12/08 00:47:09;;;;;;;4.68;2.08;;;10.70;99.90;;;;;;7397311;19;19914;-73
2023/12/08 00:49:35;;;;;;;5.38;1.92;;;10.70;99.90;;;;;;7401892;19;19919;-72
2023/12/08 00:52:01;;;;;;;5.13;2.40;;;10.60;99.90;;;;;;7397835;19;19947;-73
2023/12/08 00:54:27;;;;;;;4.82;2.00;;;10.60;99.90;;;;;;7401814;19;19933;-72
2023/12/08 00:56:52;;;;;;;4.57;1.55;;;10.60;99.90;;;;;;7401678;19;19939;-72
2023/12/08 00:59:18;;;;;;;4.38;1.55;;;10.60;99.90;;;;;;7401163;19;19918;-72
2023/12/08 01:01:44;;;;;;;3.85;1.52;;;10.60;99.90;;;;;;7402240;19;19914;-72
2023/12/08 01:04:09;;;;;;;4.47;1.70;;;10.60;99.90;;;;;;7400882;19;19918;-71
2023/12/08 01:06:35;;;;;;;5.20;1.98;;;10.60;99.90;;;;;;7401151;19;19926;-71
2023/12/08 01:09:01;;;;;;;3.85;1.85;;;10.60;99.90;;;;;;7400585;19;20236;-71
2023/12/08 01:11:27;;;;;;;4.80;1.50;;;10.70;99.90;;;;;;7401776;19;19940;-73
2023/12/08 01:13:53;;;;;;;4.65;1.90;;;10.70;99.90;;;;;;7401444;19;19922;-72
2023/12/08 01:16:19;;;;;;;3.90;1.60;;;10.70;99.90;;;;;;7401329;19;19942;-72
2023/12/08 01:18:45;;;;;;;6.35;2.25;;;10.80;99.90;;;;;;7400580;19;20367;-75
2023/12/08 01:21:10;;;;;;;7.20;2.00;;;10.70;99.90;;;;;;7399977;19;19918;-72
2023/12/08 01:23:36;;;;;;;5.80;2.50;;;10.80;99.90;;;;;;7402339;19;19911;-73
2023/12/08 01:26:06;;;;;;;5.50;2.03;;;10.80;99.90;;;;;;7402169;19;20269;-71
2023/12/08 01:28:32;;;;;;;5.30;2.13;;;10.70;99.90;;;;;;7401296;19;19929;-72
2023/12/08 01:30:58;;;;;;;4.05;1.58;;;10.70;99.90;;;;;;7402014;19;21522;-72
2023/12/08 01:33:23;;;;;;;5.13;2.20;;;10.80;99.90;;;;;;7399397;19;19914;-72
2023/12/08 01:35:49;;;;;;;3.65;1.33;;;10.80;99.90;;;;;;7400232;19;19922;-72
2023/12/08 01:38:15;;;;;;;3.28;1.33;;;10.80;99.90;;;;;;7399529;19;19915;-71
2023/12/08 01:40:41;;;;;;;3.58;1.40;;;10.80;99.90;;;;;;7400096;19;20363;-72
2023/12/08 01:43:13;;;;;;;3.75;1.58;;;10.80;99.90;;;;;;7398702;19;19963;-72
2023/12/08 01:45:42;;;;;;;3.88;1.50;;;10.80;99.90;;;;;;7399854;19;19918;-72
2023/12/08 01:48:09;;;;;;;6.03;1.95;;;10.80;99.90;;;;;;7397793;19;20490;-72
2023/12/08 01:50:35;;;;;;;3.60;1.45;;;10.80;99.90;;;;;;7402415;19;19914;-71
2023/12/08 01:53:01;;;;;;;4.15;1.70;;;10.80;99.90;;;;;;7402363;19;19960;-72
2023/12/08 01:55:27;;;;;;;3.33;1.48;;;10.80;99.90;;;;;;7398052;19;19923;-72
2023/12/08 01:57:53;;;;;;;3.97;1.55;;;10.90;99.90;;;;;;7376999;19;19921;-73
2023/12/08 02:00:19;;;;;;;5.78;1.60;;;11.00;99.90;;;;;;7399503;19;19919;-72
2023/12/08 02:02:45;;;;;;;3.20;1.30;;;11.00;99.90;;;;;;7399564;19;19914;-72
2023/12/08 02:05:12;;;;;;;4.00;1.70;;;10.90;99.90;;;;;;7399617;19;19922;-73
2023/12/08 02:07:38;;;;;;;4.43;1.50;;;11.00;99.90;;;;;;7401685;19;19907;-72
2023/12/08 02:10:04;;;;;;;4.72;2.33;;;10.90;99.90;;;;;;7397087;19;19949;-72
2023/12/08 02:12:30;;;;;;;4.63;1.90;;;10.90;99.90;;;;;;7399636;19;19922;-72
2023/12/08 02:14:56;;;;;;;5.03;1.95;;;10.90;99.90;;;;;;7398117;19;19923;-71
2023/12/08 02:17:30;;;;;;;4.13;1.67;;;10.80;99.90;;;;;;7397436;19;19939;-72
2023/12/08 02:19:56;;;;;;;4.43;1.63;;;10.70;99.90;;;;;;7398705;19;19921;-73
2023/12/08 02:22:25;;;;;;;4.03;1.40;;;10.80;99.90;;;;;;7399516;19;24562;-72
2023/12/08 02:24:51;;;;;;;5.93;1.95;;;10.80;99.90;;;;;;7398572;19;20318;-72
2023/12/08 02:27:17;;;;;;;4.65;2.00;;;10.80;99.90;;;;;;7398351;19;19915;-73
2023/12/08 02:29:43;;;;;;;4.50;1.80;;;10.80;99.90;;;;;;7400588;19;19922;-73
2023/12/08 02:32:34;;;;;;;5.15;2.17;;;10.70;99.90;;;;;;7398222;19;19919;-72
2023/12/08 02:35:04;;;;;;;5.47;2.10;;;10.70;99.90;;;;;;7399186;19;19919;-72
2023/12/08 02:37:34;;;;;;;4.57;2.10;;;10.70;99.90;;;;;;7397556;19;19911;-73
2023/12/08 02:40:02;;;;;;;4.97;2.05;;;10.80;99.90;;;;;;7398982;19;20368;-73
2023/12/08 02:42:27;;;;;;;6.50;2.30;;;10.80;99.90;;;;;;7396249;19;19922;-72
2023/12/08 02:44:54;;;;;;;4.30;1.98;;;10.80;99.90;;;;;;7399504;19;19918;-71
2023/12/08 02:47:19;;;;;;;4.60;2.08;;;10.80;99.90;;;;;;7399012;19;19922;-72
2023/12/08 02:49:45;;;;;;;5.90;2.15;;;10.80;99.90;;;;;;7399769;19;19918;-72
2023/12/08 02:52:11;;;;;;;5.22;2.83;;;10.90;99.90;;;;;;7375932;19;20243;-72
2023/12/08 02:54:37;;;;;;;5.32;1.90;;;10.90;99.90;;;;;;7397310;19;19914;-71
2023/12/08 02:57:02;;;;;;;5.03;2.17;;;10.90;99.90;;;;;;7397982;19;20775;-71
2023/12/08 02:59:28;;;;;;;5.35;2.10;;;10.90;99.90;;;;;;7400277;19;19931;-71
2023/12/08 03:01:54;;;;;;;4.18;1.77;;;11.00;99.90;;;;;;7398771;19;20341;-72
2023/12/08 03:04:20;;;;;;;4.50;2.03;;;11.00;99.90;;;;;;7397602;19;19922;-71
2023/12/08 03:06:45;;;;;;;5.97;2.28;;;11.10;99.90;;;;;;7399832;19;20347;-71
2023/12/08 03:09:11;;;;;;;4.05;1.65;;;11.10;99.90;;;;;;7398146;19;19922;-72
2023/12/08 03:11:37;;;;;;;4.32;1.88;;;11.00;99.90;;;;;;7399563;19;19986;-72
2023/12/08 03:14:02;;;;;;;4.10;1.70;;;11.10;99.90;;;;;;7395812;19;19919;-71
2023/12/08 03:16:28;;;;;;;4.40;1.63;;;11.20;99.90;;;;;;7397250;19;20332;-72
2023/12/08 03:18:54;;;;;;;3.78;1.52;;;11.20;99.90;;;;;;7398648;19;19919;-72
2023/12/08 03:21:21;;;;;;;3.95;1.67;;;11.30;99.90;;;;;;7397227;19;20303;-72
2023/12/08 03:23:47;;;;;;;4.82;1.63;;;11.30;99.90;;;;;;7398392;19;19950;-72
2023/12/08 03:26:12;;;;;;;4.43;1.88;;;11.30;99.90;;;;;;7395955;19;19936;-72
2023/12/08 03:28:38;;;;;;;5.30;1.90;;;11.30;99.90;;;;;;7396272;19;20546;-72
2023/12/08 03:31:04;;;;;;;3.50;1.55;;;11.40;99.90;;;;;;7396979;19;19919;-72
2023/12/08 03:33:30;;;;;;;4.38;1.98;;;11.30;99.90;;;;;;7403126;19;19932;-73
2023/12/08 03:35:56;;;;;;;4.15;2.00;;;11.30;99.90;;;;;;7402655;19;19914;-74
2023/12/08 03:38:21;;;;;;;4.03;1.55;;;11.40;99.90;;;;;;7403221;19;19934;-72
2023/12/08 03:40:47;;;;;;;4.82;1.58;;;11.50;99.90;;;;;;7406395;19;19932;-72
2023/12/08 03:43:14;;;;;;;4.10;1.65;;;11.40;99.90;;;;;;7400251;19;19954;-72
2023/12/08 03:45:40;;;;;;;;;;;11.50;99.90;;;;;;7404771;19;19923;-72
2023/12/08 03:48:07;;;;;;;5.05;1.90;;;11.50;99.90;;;;;;7401228;19;19957;-73
2023/12/08 03:50:33;;;;;;;4.95;1.70;;;11.60;99.90;;;;;;7406011;19;19918;-72
2023/12/08 03:52:58;;;;;;;4.38;1.52;;;11.60;99.90;;;;;;7404245;19;19933;-72
2023/12/08 03:55:24;;;;;;;3.95;1.10;;;11.70;99.90;;;;;;7405068;19;20418;-72
2023/12/08 03:57:50;;;;;;;3.92;1.40;;;11.70;99.90;;;;;;7404935;19;19950;-72
2023/12/08 04:00:16;;;;;;;3.30;1.30;;;11.90;99.90;;;;;;7401445;19;19942;-73
2023/12/08 04:02:43;;;;;;;4.45;1.50;;;12.00;99.90;;;;;;7405332;19;19930;-72
2023/12/08 04:05:08;;;;;;;3.72;1.50;;;12.10;99.90;;;;;;7401702;19;19914;-72
2023/12/08 04:07:34;;;;;;;3.65;1.42;;;12.10;99.90;;;;;;7404830;19;20032;-72
2023/12/08 04:10:00;;;;;;;5.35;1.40;;;12.10;99.90;;;;;;7401930;19;19918;-73
2023/12/08 04:12:26;;;;;;;5.35;1.42;;;12.20;99.90;;;;;;7399163;19;19926;-72
2023/12/08 04:14:52;;;;;;;3.22;1.08;;;12.20;99.90;;;;;;7401321;19;19925;-72
2023/12/08 04:17:17;;;;;;;4.15;1.33;;;12.10;99.90;;;;;;7402485;19;19961;-72
2023/12/08 04:19:43;;;;;;;5.38;1.58;;;12.10;99.90;;;;;;7401279;19;20327;-72
2023/12/08 04:22:09;;;;;;;3.25;1.23;;;12.10;99.90;;;;;;7402118;19;19936;-72
2023/12/08 04:24:35;;;;;;;4.20;1.50;;;12.10;99.90;;;;;;7401823;19;19946;-72
2023/12/08 04:27:00;;;;;;;5.28;1.85;;;12.00;99.90;;;;;;7403164;19;19922;-73
2023/12/08 04:29:26;;;;;;;3.72;1.83;;;11.90;99.90;;;;;;7404427;19;19918;-71
2023/12/08 04:31:52;;;;;;;4.65;1.80;;;11.90;99.90;;;;;;7403438;19;19915;-71
2023/12/08 04:34:18;;;;;;;4.07;1.70;;;11.90;99.90;;;;;;7398939;19;19994;-72
2023/12/08 04:36:43;;;;;;;4.25;1.63;;;11.80;99.90;;;;;;7403955;19;19927;-72
2023/12/08 04:39:09;;;;;;;4.78;1.48;;;11.80;99.90;;;;;;7398985;19;19914;-72
2023/12/08 04:41:35;;;;;;;4.03;1.75;;;11.80;99.90;;;;;;7402803;19;19922;-72
2023/12/08 04:44:00;;;;;;;4.47;1.80;;;11.80;99.90;;;;;;7403468;19;19919;-73
2023/12/08 04:46:26;;;;;;;5.32;1.90;;;11.80;99.90;;;;;;7402119;19;19922;-72
2023/12/08 04:48:52;;;;;;;4.65;1.70;;;11.80;99.90;;;;;;7402696;19;19922;-71
2023/12/08 04:51:18;;;;;;;4.13;1.50;;;11.70;99.90;;;;;;7401972;19;19926;-72
2023/12/08 04:53:43;;;;;;;4.38;1.50;;;11.70;99.90;;;;;;7401722;19;19929;-71
2023/12/08 04:56:09;;;;;;;3.83;1.65;;;11.70;99.90;;;;;;7401838;19;20045;-71
2023/12/08 04:58:37;;;;;;;3.70;1.52;;;11.70;99.90;;;;;;7400901;19;19949;-72
2023/12/08 05:01:03;;;;;;;5.63;1.80;;;11.70;99.90;;;;;;7397825;19;19926;-71
2023/12/08 05:03:29;;;;;;;4.35;1.85;;;11.70;99.90;;;;;;7379832;19;19915;-71
2023/12/08 05:05:55;;;;;;;4.20;1.67;;;11.70;99.90;;;;;;7402969;19;19919;-71
2023/12/08 05:08:22;;;;;;;4.47;1.83;;;11.60;99.90;;;;;;7399850;19;19987;-71
2023/12/08 05:10:48;;;;;;;3.53;1.48;;;11.70;99.90;;;;;;7403270;19;19929;-71
2023/12/08 05:13:15;;;;;;;4.90;1.63;;;11.60;99.90;;;;;;7401775;19;19911;-72
2023/12/08 05:15:41;;;;;;;3.60;1.80;;;11.70;99.90;;;;;;7401455;19;19922;-71
2023/12/08 05:18:07;;;;;;;4.72;1.77;;;11.70;99.90;;;;;;7401424;19;19913;-71
2023/12/08 05:20:33;;;;;;;4.80;2.10;;;11.70;99.90;;;;;;7402221;19;19922;-71
2023/12/08 05:22:59;;;;;;;3.72;1.50;;;11.70;99.90;;;;;;7402909;19;19926;-71
2023/12/08 05:25:25;;;;;;;4.45;2.03;;;11.70;99.90;;;;;;7401872;19;19919;-71
2023/12/08 05:27:51;;;;;;;4.32;1.95;;;11.70;99.90;;;;;;7404146;19;19994;-72
2023/12/08 05:30:17;;;;;;;4.88;2.30;;;11.80;99.90;;;;;;7402657;19;19918;-72
2023/12/08 05:32:43;;;;;;;4.55;2.30;;;11.80;99.90;;;;;;7401045;19;19926;-71
2023/12/08 05:35:09;;;;;;;4.75;2.58;;;11.80;99.90;;;;;;7401079;19;19910;-72
2023/12/08 05:37:34;;;;;;;5.72;2.35;;;11.80;99.90;;;;;;7403123;19;20045;-72
2023/12/08 05:40:00;;;;;;;5.07;2.35;;;11.80;99.90;;;;;;7401433;19;19925;-72
2023/12/08 05:42:26;;;;;;;4.93;2.58;;;11.80;99.90;;;;;;7401563;19;19938;-72
2023/12/08 05:44:51;;;;;;;4.80;2.60;;;11.70;99.90;;;;;;7402015;19;19929;-72
2023/12/08 05:47:17;;;;;;;5.72;3.03;;;11.70;99.90;;;;;;7399240;19;19915;-72
2023/12/08 05:49:43;;;;;;;5.07;2.88;;;11.70;99.90;;;;;;7400579;19;20453;-70
2023/12/08 05:52:09;;;;;;;5.85;2.97;;;11.60;99.90;;;;;;7399183;19;19914;-73
2023/12/08 05:54:35;;;;;;;5.80;3.10;;;11.60;99.90;;;;;;7399831;19;19942;-71
2023/12/08 05:57:00;;;;;;;5.65;2.97;;;11.50;99.90;;;;;;7402829;19;19926;-71
2023/12/08 05:59:26;;;;;;;6.80;3.67;;;11.50;99.90;;;;;;7397999;19;19915;-72
2023/12/08 06:01:52;;;;;;;6.03;3.63;;;11.50;99.90;;;;;;7399669;19;20260;-71
2023/12/08 06:04:18;;;;;;;5.85;2.88;;;11.50;99.90;;;;;;7396870;19;19942;-71
2023/12/08 06:06:43;;;;;;;5.22;2.80;;;11.40;99.90;;;;;;7401248;19;19914;-71
2023/12/08 06:09:09;;;;;;;5.50;3.50;;;11.40;99.90;;;;;;7398488;19;19918;-71
2023/12/08 06:11:35;;;;;;;5.95;3.28;;;11.40;99.90;;;;;;7399355;19;19987;-70
2023/12/08 06:14:01;;;;;;;6.55;3.30;;;11.30;99.90;;;;;;7400972;19;20335;-71
2023/12/08 06:16:27;;;;;;;7.03;3.50;;;11.20;99.90;;;;;;7395769;19;19922;-72
2023/12/08 06:18:53;;;;;;;6.38;3.90;;;11.20;99.90;;;;;;7400234;19;19947;-72
2023/12/08 06:21:20;;;;;;;6.40;3.50;;;11.20;99.90;;;;;;7398844;19;19920;-71
2023/12/08 06:23:46;;;;;;;6.40;3.60;;;11.20;99.90;;;;;;7399230;19;19923;-71
2023/12/08 06:26:12;;;;;;;7.28;3.78;;;11.10;99.90;;;;;;7397164;19;20339;-72
2023/12/08 06:28:38;;;;;;;8.10;4.07;;;11.10;99.90;;;;;;7401249;19;19915;-72
2023/12/08 06:31:04;;;;;;;6.20;3.38;;;11.10;99.90;;;;;;7379208;19;19921;-71
2023/12/08 06:33:29;;;;;;;6.78;3.92;;;11.10;99.90;;;;;;7400125;19;19941;-71
2023/12/08 06:35:55;;;;;;;5.95;3.40;;;11.10;99.90;;;;;;7396448;19;19926;-71
2023/12/08 06:38:21;;;;;;;7.10;3.83;;;11.10;99.90;;;;;;7398160;19;19938;-71
2023/12/08 06:40:47;;;;;;;6.20;4.10;;;11.10;99.90;;;;;;7400275;19;20354;-73
2023/12/08 06:43:13;;;;;;;5.97;3.65;;;11.00;99.90;;;;;;7396938;19;19974;-72
2023/12/08 06:45:38;;;;;;;6.43;3.40;;;11.10;99.90;;;;;;7397677;19;19950;-71
2023/12/08 06:48:04;;;;;;;6.88;3.65;;;11.00;99.90;;;;;;7397311;19;19918;-72
2023/12/08 06:50:30;;;;;;;7.22;3.83;;;11.00;99.90;;;;;;7397386;19;20412;-71
2023/12/08 06:52:56;;;;;;;5.80;3.25;;;11.00;99.90;;;;;;7398043;19;20053;-72
2023/12/08 06:55:25;;;;;;;7.63;5.40;;;11.10;99.90;;;;;;7398792;19;24742;-72
2023/12/08 06:57:50;;;;;;;7.82;4.60;;;11.00;99.90;;;;;;7399278;19;19919;-72
2023/12/08 07:00:16;;;;;;;7.38;3.67;;;11.00;99.90;;;;;;7395627;19;20348;-71
2023/12/08 07:02:44;;;;;;;7.20;3.78;;;11.00;99.90;;;;;;7398192;19;20328;-71
2023/12/08 07:05:10;;;;;;;8.63;3.72;;;10.90;99.90;;;;;;7399176;19;19919;-72
2023/12/08 07:07:36;;;;;;;7.93;3.78;;;10.90;99.90;;;;;;7403718;19;19914;-71
2023/12/08 07:10:02;;;;;;;6.65;4.22;;;11.00;99.90;;;;;;7401959;19;20404;-71
2023/12/08 07:12:27;;;;;;;7.05;4.00;;;11.00;99.90;;;;;;7405450;19;20389;-72
2023/12/08 07:14:53;;;;;;;8.40;4.68;;;10.90;99.90;;;;;;7404227;19;20260;-71
2023/12/08 07:17:19;;;;;;;8.60;4.50;;;10.90;99.90;;;;;;7404310;19;20010;-71
2023/12/08 07:19:45;;;;;;;8.52;4.15;;;11.00;99.90;;;;;;7403192;19;20465;-71
2023/12/08 07:22:10;;;;;;;8.38;4.47;;;11.00;99.90;;;;;;7401790;19;19933;-71
2023/12/08 07:24:40;;;;;;;7.68;4.47;;;10.90;99.90;;;;;;7403585;19;19911;-72
2023/12/08 07:27:06;;;;;;;8.13;4.88;;;11.00;99.90;;;;;;7402793;19;19919;-72
2023/12/08 07:29:32;;;;;;;7.75;4.05;;;10.90;99.90;;;;;;7404786;19;19939;-72
2023/12/08 07:31:57;;;;;;;9.75;5.28;;;10.90;99.90;;;;;;7404433;19;20303;-72
2023/12/08 07:34:24;;;;;;;7.40;4.05;;;10.90;99.90;;;;;;7400731;19;19930;-73
2023/12/08 07:36:50;;;;;;;8.98;4.47;;;10.90;99.90;;;;;;7402369;19;19911;-72
2023/12/08 07:39:15;;;;;;;6.78;4.00;;;10.90;99.90;;;;;;7402595;19;19943;-71
2023/12/08 07:41:43;;;;;;;7.28;3.50;;;10.90;99.90;;;;;;7402592;19;20330;-71
2023/12/08 07:44:08;;;;;;;7.35;4.00;;;10.90;99.90;;;;;;7401052;19;19927;-72
2023/12/08 07:46:34;;;;;;;6.20;3.45;;;11.00;99.90;;;;;;7402521;19;19918;-72
2023/12/08 07:49:00;;;;;;;6.40;3.08;;;11.00;99.90;;;;;;7405217;19;19998;-71
2023/12/08 07:51:27;;;;;;;7.20;3.17;;;11.10;99.90;;;;;;7403613;19;19931;-71
2023/12/08 07:53:53;;;;;;;5.70;2.70;;;11.20;99.90;;;;;;7403053;19;19919;-71
2023/12/08 07:56:18;;;;;;;4.70;2.42;;;11.30;99.90;;;;;;7403030;19;19930;-71
2023/12/08 07:58:45;;;;;;;5.50;2.78;;;11.30;99.90;;;;;;7401335;19;19915;-71
2023/12/08 08:01:11;;;;;;;5.50;2.65;;;11.40;99.90;;;;;;7402092;19;19926;-72
2023/12/08 08:03:37;;;;;;;5.22;2.85;;;11.40;99.90;;;;;;7403616;19;19918;-71
2023/12/08 08:06:03;;;;;;;4.78;2.53;;;11.40;99.90;;;;;;7402625;19;19929;-71
2023/12/08 08:08:29;;;;;;;6.40;2.80;;;11.40;99.90;;;;;;7401762;19;19966;-73
2023/12/08 08:10:55;;;;;;;5.50;2.72;;;11.40;99.90;;;;;;7402644;19;19931;-72
2023/12/08 08:13:20;;;;;;;5.25;2.72;;;11.40;99.90;;;;;;7400358;19;19927;-71
2023/12/08 08:15:46;;;;;;;5.35;2.80;;;11.40;99.90;;;;;;7402174;19;19934;-72
2023/12/08 08:18:13;;;;;;;5.80;2.35;;;11.50;99.90;;;;;;7402512;19;19969;-73
2023/12/08 08:20:39;;;;;;;5.15;2.55;;;11.50;99.90;;;;;;7400443;19;19918;-72
2023/12/08 08:23:05;;;;;;;5.00;2.38;;;11.60;99.90;;;;;;7399775;19;19926;-71
2023/12/08 08:25:31;;;;;;;5.15;2.80;;;11.60;99.50;;;;;;7402953;19;20267;-72
2023/12/08 08:28:00;;;;;;;4.38;2.05;;;11.60;99.10;;;;;;7402890;19;19910;-72
2023/12/08 08:30:26;;;;;;;5.75;2.85;;;11.60;99.00;;;;;;7400245;19;19932;-72
2023/12/08 08:32:52;;;;;;;5.03;2.35;;;11.60;99.00;;;;;;7399110;19;19929;-72
2023/12/08 08:35:18;;;;;;;5.63;2.58;;;11.60;99.00;;;;;;7399886;19;19919;-72
2023/12/08 08:37:44;;;;;;;5.53;2.83;;;11.70;98.70;;;;;;7399571;19;19938;-71
2023/12/08 08:40:10;;;;;;;5.15;2.20;;;11.70;98.40;;;;;;7399955;19;19919;-72
2023/12/08 08:42:37;;;;;;;5.53;2.67;;;11.70;98.40;;;;;;7401043;19;19911;-72
2023/12/08 08:45:04;;;;;;;5.75;2.85;;;11.70;98.40;;;;;;7401652;19;19926;-72
2023/12/08 08:47:30;;;;;;;6.25;2.90;;;11.70;98.40;;;;;;7399987;19;19926;-73
2023/12/08 08:49:56;;;;;;;4.95;2.80;;;11.70;98.40;;;;;;7402597;19;19922;-71
2023/12/08 08:52:22;;;;;;;5.70;3.10;;;11.80;98.20;;;;;;7399277;19;19915;-72
2023/12/08 08:54:48;;;;;;;6.50;2.92;;;12.00;97.60;;;;;;7401906;19;19919;-72
2023/12/08 08:57:14;;;;;;;6.13;3.22;;;12.10;96.40;;;;;;7398747;19;19926;-71
2023/12/08 08:59:40;;;;;;;6.40;3.45;;;12.30;96.10;;;;;;7403235;19;19914;-71
2023/12/08 09:02:05;;;;;;;5.22;2.63;;;12.50;95.30;;;;;;7398674;19;19922;-73
2023/12/08 09:04:31;;;;;;;6.40;2.75;;;12.70;93.60;;;;;;7403277;19;19914;-72
2023/12/08 09:06:57;;;;;;;4.97;2.38;;;12.90;92.50;;;;;;7392765;19;20015;-71
2023/12/08 09:09:23;;;;;;;5.80;3.03;;;12.90;91.60;;;;;;7400683;19;19941;-71
2023/12/08 09:11:48;;;;;;;5.60;3.00;;;12.70;92.40;;;;;;7397897;19;19949;-72
2023/12/08 09:14:15;;;;;;;5.55;3.55;;;12.50;92.40;;;;;;7377074;19;19926;-72
2023/12/08 09:16:40;;;;;;;6.20;3.22;;;12.70;92.80;;;;;;7401939;19;19974;-71
2023/12/08 09:19:06;;;;;;;5.07;2.67;;;12.70;92.70;;;;;;7399333;19;19918;-72
2023/12/08 09:21:32;;;;;;;6.88;3.45;;;12.50;92.80;;;;;;7399673;19;19927;-73
2023/12/08 09:23:58;;;;;;;4.97;2.67;;;12.60;94.00;;;;;;7399363;19;19918;-72
2023/12/08 09:26:24;;;;;;;5.63;3.53;;;13.10;92.10;;;;;;7389790;19;19935;-72
2023/12/08 09:28:50;;;;;;;6.28;3.40;;;13.40;90.20;;;;;;7381804;19;20339;-73
2023/12/08 09:31:18;;;;;;;5.72;3.13;;;13.60;86.70;;;;;;7352344;19;20211;-72
2023/12/08 09:33:44;;;;;;;4.93;3.00;;;13.50;87.20;;;;;;7397524;19;19922;-71
2023/12/08 09:36:10;;;;;;;8.15;3.55;;;14.10;85.00;;;;;;7398822;19;20343;-72
2023/12/08 09:38:36;;;;;;;5.47;3.30;;;14.50;81.40;;;;;;7399485;19;19950;-71
2023/12/08 09:41:05;;;;;;;5.50;3.30;;;14.40;77.00;;;;;;7400138;19;19978;-71
2023/12/08 09:43:45;;;;;;;5.30;3.30;;;14.50;78.70;;;;;;7398133;19;20335;-73
2023/12/08 09:46:14;;;;;;;6.28;3.47;;;14.90;77.20;;;;;;7398695;19;19926;-73
2023/12/08 09:48:43;;;;;;;5.88;3.35;;;14.90;75.20;;;;;;7399302;19;19990;-73
2023/12/08 09:51:10;;;;;;;5.00;3.13;;;15.10;75.20;;;;;;7400233;19;20250;-72
2023/12/08 09:53:38;;;;;;;5.68;3.20;;;15.20;73.10;;;;;;7397202;19;19911;-73
2023/12/08 09:56:04;;;;;;;6.32;3.53;;;15.50;71.60;;;;;;7388905;19;19998;-72
2023/12/08 09:58:31;;;;;;;7.13;3.40;;;16.10;69.20;;;;;;7390636;19;19961;-71
2023/12/08 10:00:58;;;;;;;;;;;16.60;64.50;;;;;;7400212;19;19926;-71
2023/12/08 10:03:24;;;;;;;5.05;3.03;;;16.70;62.90;;;;;;7395664;19;19922;-72
2023/12/08 10:05:53;;;;;;;4.88;3.05;;;16.80;60.90;;;;;;7390728;19;19926;-71
2023/12/08 10:08:20;;;;;;;5.60;3.42;;;16.60;59.30;;;;;;7381455;19;19915;-71
2023/12/08 10:10:46;;;;;;;5.20;3.40;;;16.90;62.70;;;;;;7396881;19;19911;-71
2023/12/08 10:13:12;;;;;;;5.93;3.58;;;17.50;56.30;;;;;;7396205;19;19918;-71
2023/12/08 10:15:44;;;;;;;5.40;3.38;;;17.50;56.10;;;;;;7388187;19;20382;-72
2023/12/08 10:18:27;;;;;;;4.95;3.30;;;17.10;58.30;;;;;;7393968;19;20298;-72
2023/12/08 10:21:15;;;;;;;5.15;3.10;;;17.30;55.30;;;;;;7393600;19;19926;-71
2023/12/08 10:23:45;;;;;;;6.07;3.97;;;17.70;52.00;;;;;;7388813;19;20248;-71
2023/12/08 10:26:15;;;;;;;5.20;3.05;;;17.00;51.90;;;;;;7391383;19;19910;-72
2023/12/08 10:28:43;;;;;;;4.57;2.90;;;17.40;54.30;;;;;;7394171;19;19919;-73
2023/12/08 10:31:09;;;;;;;4.80;3.03;;;17.90;50.60;;;;;;7385053;19;19922;-72
2023/12/08 10:33:34;;;;;;;6.90;3.90;;;18.30;51.70;;;;;;7386579;19;20503;-71
2023/12/08 10:36:00;;;;;;;4.85;3.33;;;18.30;48.60;;;;;;7396656;19;19915;-72
2023/12/08 10:38:26;;;;;;;5.25;3.25;;;18.30;45.80;;;;;;7394995;19;19948;-71
2023/12/08 10:40:52;;;;;;;5.05;3.03;;;17.60;49.70;;;;;;7405135;19;19919;-71
2023/12/08 10:43:25;;;;;;;4.68;3.00;;;16.70;55.60;;;;;;7400906;19;19948;-71
2023/12/08 10:45:52;;;;;;;5.93;3.30;;;16.40;57.40;;;;;;7404075;19;19915;-72
2023/12/08 10:48:20;;;;;;;5.32;3.50;;;16.40;59.10;;;;;;7403578;19;19925;-71
2023/12/08 10:50:50;;;;;;;5.88;3.22;;;17.40;57.50;;;;;;7403667;19;19938;-71
2023/12/08 10:53:20;;;;;;;4.82;3.05;;;18.50;49.90;;;;;;7400505;19;19911;-71
2023/12/08 10:55:53;;;;;;;5.55;3.20;;;19.50;44.50;;;;;;7404882;19;20434;-71
2023/12/08 10:58:22;;;;;;;5.30;3.35;;;20.20;40.90;;;;;;7401692;19;19915;-71
2023/12/08 11:00:54;;;;;;;4.82;3.00;;;21.10;35.30;;;;;;7403628;19;19946;-71
2023/12/08 11:03:21;;;;;;;4.97;3.08;;;20.60;33.80;;;;;;7400628;19;19942;-71
2023/12/08 11:06:01;;;;;;;5.18;3.60;;;19.20;39.30;;;;;;7402941;19;19986;-71
2023/12/08 11:08:29;;;;;;;5.18;2.97;;;18.70;43.70;;;;;;7403118;19;19918;-70
2023/12/08 11:10:59;;;;;;;5.28;3.38;;;18.50;43.60;;;;;;7402734;19;19922;-71
2023/12/08 11:13:27;;;;;;;5.95;3.20;;;19.10;43.20;;;;;;7401321;19;20343;-72
2023/12/08 11:16:20;;;;;;;5.05;2.95;;;18.60;42.60;;;;;;7403608;19;19915;-71
2023/12/08 11:18:47;;;;;;;5.07;2.90;;;19.20;43.80;;;;;;7403603;19;19919;-71
2023/12/08 11:21:13;;;;;;;5.25;3.35;;;18.80;42.90;;;;;;7400878;19;19918;-71
2023/12/08 11:23:40;;;;;;;5.25;3.58;;;19.00;43.90;;;;;;7401649;19;19928;-72
2023/12/08 11:26:37;;;;;;;5.03;3.45;;;19.80;40.20;;;;;;7396004;19;19922;-71
2023/12/08 11:29:27;;;;;;;5.18;3.60;;;21.10;35.40;;;;;;7402539;19;19927;-72
2023/12/08 11:32:20;;;;;;;5.28;3.75;;;21.90;31.30;;;;;;7400741;19;19922;-72
2023/12/08 11:35:03;;;;;;;5.53;3.85;;;22.20;28.70;;;;;;7401153;19;19937;-71
2023/12/08 11:40:53;;;;;;;5.35;3.45;;;22.40;28.80;;;;;;7374792;19;19971;-71
2023/12/08 11:43:19;;;;;;;5.20;3.67;;;21.00;29.80;;;;;;7397654;19;20149;-71
2023/12/08 11:45:44;;;;;;;5.32;3.78;;;19.90;34.70;;;;;;7396416;19;19930;-72
2023/12/08 11:48:14;;;;;;;4.97;3.33;;;19.20;38.10;;;;;;7397481;19;19918;-71
2023/12/08 11:50:40;;;;;;;4.80;3.03;;;18.60;41.80;;;;;;7395650;19;20311;-72
2023/12/08 11:53:06;;;;;;;5.20;3.42;;;18.80;43.80;;;;;;7398530;19;19984;-72
2023/12/08 11:55:32;;;;;;;4.53;3.05;;;21.00;35.20;;;;;;7397812;19;19931;-71
2023/12/08 11:58:03;;;;;;;5.05;3.45;;;22.50;29.60;;;;;;7399726;19;20919;-72
2023/12/08 12:00:32;;;;;;;6.00;3.42;;;23.60;26.60;;;;;;7376594;19;19922;-72
2023/12/08 12:02:59;;;;;;;4.78;3.55;;;24.50;24.10;;;;;;7399342;19;20726;-71
2023/12/08 12:05:28;;;;;;;5.13;3.95;;;25.30;21.00;;;;;;7395510;19;19938;-71
2023/12/08 12:07:55;;;;;;;4.90;3.80;;;25.20;20.20;;;;;;7399431;19;19918;-72
2023/12/08 12:10:23;;;;;;;5.30;3.83;;;25.10;19.10;;;;;;7398693;19;19918;-71
2023/12/08 12:13:03;;;;;;;5.28;3.40;;;23.40;22.50;;;;;;7401051;19;19979;-71
2023/12/08 12:15:30;;;;;;;4.82;3.10;;;23.00;22.00;;;;;;7402633;19;19935;-71
2023/12/08 12:17:57;;;;;;;5.43;3.78;;;22.80;23.00;;;;;;7397935;19;19915;-72
2023/12/08 12:20:23;;;;;;;5.75;3.55;;;23.20;22.80;;;;;;7402582;19;19931;-70
2023/12/08 12:22:49;;;;;;;4.95;3.28;;;22.30;23.20;;;;;;7398723;19;19934;-71
2023/12/08 12:25:15;;;;;;;7.05;4.10;;;21.30;26.40;;;;;;7401469;19;19982;-71
2023/12/08 12:27:46;;;;;;;5.95;3.92;;;20.50;29.50;;;;;;7398184;19;19915;-72
2023/12/08 12:30:12;;;;;;;6.32;3.88;;;22.00;27.90;;;;;;7397241;19;19922;-72
2023/12/08 12:32:41;;;;;;;6.35;4.47;;;21.00;27.50;;;;;;7394409;19;19922;-71
2023/12/08 12:35:07;;;;;;;5.72;4.38;;;20.10;32.10;;;;;;7396264;19;19930;-72
2023/12/08 12:37:37;;;;;;;6.07;4.32;;;20.30;32.50;;;;;;7397431;19;19971;-71
2023/12/08 12:40:07;;;;;;;5.45;3.78;;;21.30;28.00;;;;;;7394884;19;19910;-72
2023/12/08 12:42:45;;;;;;;5.55;3.78;;;20.60;28.60;;;;;;7397246;19;19931;-71
2023/12/08 12:45:24;;;;;;;5.68;3.60;;;21.30;28.00;;;;;;7398219;19;19978;-72
2023/12/08 12:47:58;;;;;;;5.95;3.65;;;23.20;25.30;;;;;;7395958;19;20015;-71
2023/12/08 12:50:24;;;;;;;5.38;3.25;;;23.80;21.70;;;;;;7397356;19;19935;-72